Time;durP1;ratioP1;P1;durP2;ratioP2;P2;SDS_P1;SDS_P2;PMS_P1;PMS_P2;Temp;Humidity;BMP_temperature;BMP_pressure;BME280_temperature;BME280_humidity;BME280_pressure;Samples;Min_cycle;Max_cycle;Signal;HPM_P1;HPM_P2
2021/09/21 00:02:10;;;;;;;7.87;4.23;;;;;10.80;102150.00;;;;10419203;28;20198;-79
2021/09/21 00:07:12;;;;;;;4.27;3.80;;;;;10.70;102151.00;;;;10436907;28;20645;-80
2021/09/21 00:12:14;;;;;;;4.67;4.27;;;;;10.60;102157.00;;;;10421108;28;20201;-79
2021/09/21 00:17:16;;;;;;;8.10;5.40;;;;;10.50;102168.00;;;;10440355;28;20891;-80
2021/09/21 00:22:18;;;;;;;5.30;4.20;;;;;10.40;102181.00;;;;10454097;28;20178;-80
2021/09/21 00:27:20;;;;;;;6.00;4.40;;;;;10.30;102189.00;;;;10478041;28;20185;-80
2021/09/21 00:32:25;;;;;;;5.10;4.60;;;;;10.10;102192.00;;;;10478519;28;20224;-80
2021/09/21 00:37:27;;;;;;;5.60;4.93;;;;;10.00;102194.00;;;;10446333;28;20209;-80
2021/09/21 00:42:30;;;;;;;6.97;5.20;;;;;9.90;102200.00;;;;10445396;28;20214;-80
2021/09/21 00:47:39;;;;;;;7.90;6.10;;;;;9.80;102190.00;;;;10453791;28;20649;-80
2021/09/21 00:52:41;;;;;;;6.83;5.33;;;;;9.70;102197.00;;;;10435709;28;20194;-80
2021/09/21 00:57:43;;;;;;;8.03;5.80;;;;;9.70;102198.00;;;;10444702;28;20213;-80
2021/09/21 01:02:45;;;;;;;7.17;5.87;;;;;9.60;102186.00;;;;10475462;28;20865;-80
2021/09/21 01:07:49;;;;;;;8.17;6.00;;;;;9.60;102201.00;;;;10473307;28;20197;-81
2021/09/21 01:12:52;;;;;;;8.63;5.53;;;;;9.50;102200.00;;;;10424498;28;20201;-81
2021/09/21 01:17:56;;;;;;;7.07;6.07;;;;;9.40;102204.00;;;;10478140;28;20204;-80
2021/09/21 01:23:02;;;;;;;6.77;5.57;;;;;9.40;102204.00;;;;10452962;28;20186;-81
2021/09/21 01:28:04;;;;;;;8.60;5.43;;;;;9.20;102201.00;;;;10426873;28;20255;-81
2021/09/21 01:33:06;;;;;;;7.27;5.63;;;;;9.10;102206.00;;;;10455720;28;20570;-81
2021/09/21 01:38:08;;;;;;;7.83;5.67;;;;;8.90;102203.00;;;;10455553;28;20637;-80
2021/09/21 01:43:10;;;;;;;8.63;6.00;;;;;8.70;102197.00;;;;10439656;28;20248;-80
2021/09/21 01:48:12;;;;;;;7.70;6.17;;;;;8.60;102202.00;;;;10448518;28;20208;-80
2021/09/21 01:53:34;;;;;;;8.67;6.73;;;;;8.60;102217.00;;;;10430887;28;20194;-80
2021/09/21 02:03:43;;;;;;;11.27;6.83;;;;;8.50;102211.00;;;;10429964;28;20194;-80
2021/09/21 02:08:45;;;;;;;8.97;6.30;;;;;8.40;102204.00;;;;10413855;28;20194;-80
2021/09/21 02:13:47;;;;;;;9.13;6.30;;;;;8.30;102191.00;;;;10445768;28;20201;-80
2021/09/21 02:18:49;;;;;;;9.90;6.00;;;;;8.20;102195.00;;;;10450807;28;20676;-81
2021/09/21 02:23:52;;;;;;;9.57;6.83;;;;;8.20;102179.00;;;;10412815;28;20194;-80
2021/09/21 02:28:55;;;;;;;9.57;7.60;;;;;8.10;102175.00;;;;10431367;28;20233;-80
2021/09/21 02:33:57;;;;;;;10.47;7.20;;;;;8.10;102177.00;;;;10428788;28;20221;-81
2021/09/21 02:38:59;;;;;;;11.50;7.97;;;;;8.10;102189.00;;;;10412679;28;20581;-81
2021/09/21 02:44:02;;;;;;;11.33;8.07;;;;;8.20;102195.00;;;;10431364;28;20182;-81
2021/09/21 02:49:03;;;;;;;9.53;8.10;;;;;8.40;102194.00;;;;10452456;28;20189;-80
2021/09/21 02:54:05;;;;;;;9.57;8.20;;;;;8.50;102195.00;;;;10453002;28;20214;-80
2021/09/21 02:59:07;;;;;;;9.33;8.13;;;;;8.60;102187.00;;;;10453228;28;20190;-81
2021/09/21 03:04:24;;;;;;;14.03;9.53;;;;;8.60;102193.00;;;;10486940;28;20193;-80
2021/09/21 03:19:55;;;;;;;11.57;8.87;;;;;8.80;102211.00;;;;10427658;28;20229;-81
2021/09/21 03:24:57;;;;;;;13.53;10.03;;;;;8.90;102216.00;;;;10426995;28;20553;-80
2021/09/21 03:29:59;;;;;;;12.80;9.43;;;;;9.00;102210.00;;;;10456401;28;20205;-80
2021/09/21 03:35:03;;;;;;;12.27;10.07;;;;;9.00;102225.00;;;;10435836;28;20206;-80
2021/09/21 03:40:08;;;;;;;12.47;9.73;;;;;9.10;102233.00;;;;10458032;28;20213;-80
2021/09/21 03:45:11;;;;;;;16.90;10.37;;;;;9.20;102235.00;;;;10475561;28;20194;-80
2021/09/21 03:50:13;;;;;;;15.13;9.47;;;;;9.20;102245.00;;;;10482655;28;20208;-81
2021/09/21 03:55:16;;;;;;;12.70;9.40;;;;;9.10;102240.00;;;;10441978;28;20209;-80
2021/09/21 04:00:18;;;;;;;12.50;9.53;;;;;8.90;102237.00;;;;10458442;28;20252;-80
2021/09/21 04:05:20;;;;;;;13.77;9.43;;;;;8.70;102246.00;;;;10464189;28;20196;-80
2021/09/21 04:10:22;;;;;;;12.43;10.87;;;;;8.60;102259.00;;;;10457061;28;20582;-80
2021/09/21 04:15:24;;;;;;;14.07;10.50;;;;;8.50;102274.00;;;;10457098;28;20259;-80
2021/09/21 04:20:26;;;;;;;12.97;10.87;;;;;8.50;102268.00;;;;10456688;28;20270;-80
2021/09/21 04:25:30;;;;;;;13.70;10.40;;;;;8.40;102266.00;;;;10456933;28;20194;-81
2021/09/21 04:30:32;;;;;;;14.00;10.20;;;;;8.30;102265.00;;;;10432326;28;20209;-81
2021/09/21 04:35:43;;;;;;;15.20;11.30;;;;;8.10;102263.00;;;;10417188;28;20284;-80
2021/09/21 04:40:45;;;;;;;13.93;10.97;;;;;8.00;102271.00;;;;10415659;28;20244;-80
2021/09/21 04:45:47;;;;;;;14.40;11.53;;;;;7.90;102271.00;;;;10448930;28;20277;-80
2021/09/21 04:50:49;;;;;;;19.53;12.87;;;;;7.80;102269.00;;;;10415801;28;20221;-80
2021/09/21 04:55:51;;;;;;;15.70;12.00;;;;;7.70;102261.00;;;;10432487;28;20214;-80
2021/09/21 05:00:54;;;;;;;20.43;13.60;;;;;7.70;102284.00;;;;10453440;28;20212;-81
2021/09/21 05:05:57;;;;;;;14.77;11.87;;;;;7.60;102286.00;;;;10475831;28;20189;-81
2021/09/21 05:10:58;;;;;;;15.20;12.77;;;;;7.50;102280.00;;;;10459607;28;20194;-80
2021/09/21 05:16:01;;;;;;;18.27;13.40;;;;;7.40;102269.00;;;;10442599;28;20202;-81
2021/09/21 05:21:04;;;;;;;18.00;12.33;;;;;7.40;102283.00;;;;10475456;28;20201;-81
2021/09/21 05:26:06;;;;;;;20.80;13.67;;;;;7.30;102289.00;;;;10441773;28;20263;-81
2021/09/21 05:31:07;;;;;;;17.53;12.30;;;;;7.30;102275.00;;;;10449575;28;20205;-80
2021/09/21 05:36:09;;;;;;;20.77;13.97;;;;;7.30;102290.00;;;;10431983;28;20217;-81
2021/09/21 05:41:12;;;;;;;19.27;14.43;;;;;7.40;102317.00;;;;10432391;28;20288;-80
2021/09/21 05:46:14;;;;;;;18.07;13.57;;;;;7.50;102320.00;;;;10414920;28;20228;-81
2021/09/21 05:51:16;;;;;;;18.17;13.67;;;;;7.60;102321.00;;;;10429297;28;20317;-81
2021/09/21 05:56:18;;;;;;;19.03;14.37;;;;;7.70;102336.00;;;;10432478;28;20214;-81
2021/09/21 06:01:19;;;;;;;18.37;13.60;;;;;7.80;102342.00;;;;10437522;28;20541;-81
2021/09/21 06:06:22;;;;;;;22.47;15.37;;;;;8.00;102353.00;;;;10440026;28;20190;-81
2021/09/21 06:11:28;;;;;;;26.50;16.07;;;;;8.40;102374.00;;;;10471885;28;20186;-81
2021/09/21 06:16:31;;;;;;;20.50;14.77;;;;;8.40;102377.00;;;;10476074;28;20211;-80
2021/09/21 06:21:33;;;;;;;16.37;12.80;;;;;8.60;102393.00;;;;10447249;28;20258;-81
2021/09/21 06:26:36;;;;;;;18.33;12.97;;;;;8.70;102391.00;;;;10447132;28;20197;-81
2021/09/21 06:31:38;;;;;;;17.53;13.87;;;;;8.90;102386.00;;;;10440393;28;20323;-81
2021/09/21 06:36:40;;;;;;;15.30;12.23;;;;;9.20;102408.00;;;;10455303;28;20672;-81
2021/09/21 06:41:41;;;;;;;15.80;12.33;;;;;9.60;102412.00;;;;10469002;28;20213;-81
2021/09/21 06:46:45;;;;;;;15.67;11.37;;;;;9.90;102407.00;;;;10439961;28;20190;-81
2021/09/21 06:51:47;;;;;;;13.83;11.50;;;;;10.10;102422.00;;;;10429830;28;20190;-81
2021/09/21 06:56:48;;;;;;;14.20;10.53;;;;;10.40;102434.00;;;;10445051;28;20576;-81
2021/09/21 07:01:50;;;;;;;13.43;10.63;;;;;10.60;102445.00;;;;10430379;28;20269;-81
2021/09/21 07:06:53;;;;;;;11.80;9.27;;;;;11.00;102455.00;;;;10429868;28;20248;-81
2021/09/21 07:11:54;;;;;;;12.47;9.70;;;;;11.20;102464.00;;;;10435333;28;20752;-81
2021/09/21 07:16:56;;;;;;;14.73;10.27;;;;;11.40;102462.00;;;;10420462;28;20238;-81
2021/09/21 07:21:58;;;;;;;12.10;9.70;;;;;11.40;102481.00;;;;10461860;28;20208;-81
2021/09/21 07:27:00;;;;;;;12.10;9.87;;;;;11.70;102484.00;;;;10446055;28;20213;-81
2021/09/21 07:32:02;;;;;;;12.73;10.23;;;;;11.80;102499.00;;;;10478191;28;20697;-81
2021/09/21 07:37:05;;;;;;;13.90;10.67;;;;;12.20;102490.00;;;;10420972;28;20222;-81
2021/09/21 07:42:07;;;;;;;17.47;10.30;;;;;12.50;102498.00;;;;10402571;28;20226;-80
2021/09/21 07:47:09;;;;;;;17.83;12.97;;;;;12.90;102502.00;;;;10402857;28;20200;-81
2021/09/21 07:52:15;;;;;;;14.87;11.67;;;;;13.30;102502.00;;;;10453728;28;20191;-81
2021/09/21 07:57:18;;;;;;;21.90;13.30;;;;;13.70;102507.00;;;;10479140;28;20642;-81
2021/09/21 08:02:21;;;;;;;23.97;16.17;;;;;14.10;102515.00;;;;10463352;28;20656;-81
2021/09/21 08:07:28;;;;;;;21.03;15.83;;;;;14.40;102512.00;;;;10440826;28;20684;-81
2021/09/21 08:12:32;;;;;;;21.17;14.83;;;;;14.90;102512.00;;;;10435282;28;20202;-81
2021/09/21 08:17:34;;;;;;;24.20;17.77;;;;;15.20;102506.00;;;;10433508;28;20222;-80
2021/09/21 08:22:37;;;;;;;20.73;16.67;;;;;15.40;102519.00;;;;10464161;28;20675;-81
2021/09/21 08:27:40;;;;;;;22.80;17.30;;;;;15.60;102524.00;;;;10449030;28;20261;-81
2021/09/21 08:33:02;;;;;;;19.90;15.52;;;;;16.00;102525.00;;;;10418849;28;20194;-81
2021/09/21 08:38:04;;;;;;;16.40;13.88;;;;;16.40;102524.00;;;;10443555;28;20211;-80
2021/09/21 08:43:06;;;;;;;16.17;12.32;;;;;16.80;102520.00;;;;10432819;28;20641;-82
2021/09/21 08:48:08;;;;;;;18.40;13.45;;;;;17.30;102522.00;;;;10434941;28;20198;-82
2021/09/21 08:53:10;;;;;;;14.55;12.32;;;;;17.80;102523.00;;;;10468148;28;20209;-82
2021/09/21 08:58:13;;;;;;;14.90;11.52;;;;;18.00;102531.00;;;;10445001;28;20681;-81
2021/09/21 09:03:15;;;;;;;12.60;11.27;;;;;18.10;102531.00;;;;10410600;28;20297;-82
2021/09/21 09:08:46;;;;;;;13.90;10.52;;;;;18.40;102541.00;;;;10489495;28;20199;-81
2021/09/21 09:13:57;;;;;;;12.52;10.50;;;;;18.50;102543.00;;;;10455034;28;20284;-81
2021/09/21 09:19:05;;;;;;;12.88;10.05;;;;;18.80;102535.00;;;;10477628;28;20308;-82
2021/09/21 09:24:09;;;;;;;15.65;10.30;;;;;19.30;102531.00;;;;10502115;28;20228;-81
2021/09/21 09:29:14;;;;;;;12.30;9.02;;;;;19.90;102520.00;;;;10445911;28;20280;-82
2021/09/21 09:34:21;;;;;;;9.73;8.73;;;;;20.10;102522.00;;;;10439134;28;20214;-82
2021/09/21 09:39:28;;;;;;;12.88;9.43;;;;;20.30;102526.00;;;;10460490;28;20244;-81
2021/09/21 09:44:32;;;;;;;11.15;8.70;;;;;20.50;102525.00;;;;10466961;28;20526;-81
2021/09/21 09:49:43;;;;;;;10.98;7.35;;;;;20.70;102518.00;;;;10443913;28;20334;-81
2021/09/21 09:54:46;;;;;;;9.27;8.23;;;;;20.90;102515.00;;;;10451034;28;20220;-81
2021/09/21 09:59:49;;;;;;;9.30;7.43;;;;;21.00;102517.00;;;;10438434;28;20198;-81
2021/09/21 10:04:51;;;;;;;13.27;7.85;;;;;21.20;102527.00;;;;10431064;28;20186;-81
2021/09/21 10:09:54;;;;;;;10.45;8.27;;;;;21.30;102524.00;;;;10486350;28;20266;-81
2021/09/21 10:14:57;;;;;;;12.40;8.07;;;;;21.40;102525.00;;;;10452791;28;20214;-81
2021/09/21 10:19:59;;;;;;;7.63;6.60;;;;;21.40;102521.00;;;;10424222;28;20660;-81
2021/09/21 10:25:06;;;;;;;10.13;7.22;;;;;21.40;102528.00;;;;10487036;28;20275;-81
2021/09/21 10:30:10;;;;;;;10.57;6.47;;;;;21.50;102532.00;;;;10454559;28;20197;-81
2021/09/21 10:35:15;;;;;;;8.65;7.13;;;;;21.60;102537.00;;;;10444635;28;20210;-81
2021/09/21 10:40:17;;;;;;;8.20;6.28;;;;;21.90;102536.00;;;;10429431;28;20756;-82
2021/09/21 10:45:26;;;;;;;8.07;6.05;;;;;22.00;102539.00;;;;10454869;28;20557;-81
2021/09/21 10:50:28;;;;;;;9.90;7.60;;;;;21.70;102531.00;;;;10412066;28;20194;-81
2021/09/21 10:55:35;;;;;;;10.82;7.75;;;;;21.80;102532.00;;;;10444041;28;20202;-82
2021/09/21 11:00:36;;;;;;;11.13;6.85;;;;;21.90;102521.00;;;;10444866;28;20205;-81
2021/09/21 11:05:43;;;;;;;6.18;5.57;;;;;22.00;102532.00;;;;10439436;28;20345;-81
2021/09/21 11:10:53;;;;;;;9.27;6.35;;;;;22.20;102530.00;;;;10469400;28;20588;-82
2021/09/21 11:15:58;;;;;;;8.65;6.55;;;;;22.40;102519.00;;;;10469066;28;20209;-81
2021/09/21 11:21:07;;;;;;;7.80;6.82;;;;;22.40;102527.00;;;;10453846;28;20197;-83
2021/09/21 11:26:12;;;;;;;8.88;6.63;;;;;22.10;102510.00;;;;10440232;28;20193;-83
2021/09/21 11:31:14;;;;;;;9.90;5.80;;;;;22.00;102516.00;;;;10486328;28;20204;-81
2021/09/21 11:36:17;;;;;;;8.95;6.18;;;;;22.60;102520.00;;;;10459693;28;20215;-81
2021/09/21 11:41:21;;;;;;;11.38;6.10;;;;;22.90;102516.00;;;;10450987;28;20316;-81
2021/09/21 11:46:30;;;;;;;7.82;6.20;;;;;23.00;102522.00;;;;10467869;28;20186;-81
2021/09/21 11:51:35;;;;;;;9.40;6.15;;;;;23.00;102527.00;;;;10443869;28;20198;-81
2021/09/21 11:56:42;;;;;;;8.48;5.97;;;;;23.00;102526.00;;;;10425160;28;20256;-82
2021/09/21 12:01:49;;;;;;;8.98;5.78;;;;;22.80;102523.00;;;;10488704;28;20198;-82
2021/09/21 12:06:52;;;;;;;6.70;5.78;;;;;22.90;102532.00;;;;10459839;28;20217;-81
2021/09/21 12:11:57;;;;;;;7.85;5.82;;;;;23.20;102527.00;;;;10443892;28;20232;-81
2021/09/21 12:17:02;;;;;;;7.05;5.40;;;;;23.20;102534.00;;;;10477058;28;20225;-81
2021/09/21 12:22:06;;;;;;;6.15;5.22;;;;;23.00;102531.00;;;;10482553;28;20190;-81
2021/09/21 12:27:08;;;;;;;7.40;5.88;;;;;23.00;102523.00;;;;10452507;28;20205;-81
2021/09/21 12:32:12;;;;;;;7.78;6.00;;;;;23.10;102521.00;;;;10488169;28;20213;-81
2021/09/21 12:37:17;;;;;;;6.25;4.70;;;;;23.40;102514.00;;;;10425000;28;20210;-82
2021/09/21 12:42:19;;;;;;;6.72;4.32;;;;;23.50;102511.00;;;;10461081;28;20221;-81
2021/09/21 12:47:21;;;;;;;5.75;4.50;;;;;23.40;102506.00;;;;10480137;28;20196;-78
2021/09/21 12:52:28;;;;;;;6.47;5.50;;;;;23.50;102499.00;;;;10478279;28;20202;-79
2021/09/21 12:57:30;;;;;;;8.48;5.43;;;;;23.40;102499.00;;;;10438282;28;20228;-81
2021/09/21 13:02:32;;;;;;;7.07;5.32;;;;;23.40;102498.00;;;;10459641;28;20206;-81
2021/09/21 13:07:35;;;;;;;7.63;5.50;;;;;23.10;102493.00;;;;10459391;28;20663;-82
2021/09/21 13:12:37;;;;;;;12.80;6.57;;;;;22.90;102492.00;;;;10479042;28;20206;-81
2021/09/21 13:17:39;;;;;;;7.85;5.10;;;;;22.90;102504.00;;;;10479093;28;20304;-81
2021/09/21 13:22:40;;;;;;;19.52;10.55;;;;;22.90;102490.00;;;;10439937;28;20205;-80
2021/09/21 13:27:43;;;;;;;6.45;4.28;;;;;23.50;102484.00;;;;10472274;28;20213;-82
2021/09/21 13:32:45;;;;;;;5.68;3.53;;;;;23.60;102493.00;;;;10457663;28;20212;-81
2021/09/21 13:37:49;;;;;;;8.10;6.30;;;;;23.40;102483.00;;;;10441363;28;20210;-81
2021/09/21 13:42:56;;;;;;;6.22;4.60;;;;;23.40;102482.00;;;;10474398;28;20194;-81
2021/09/21 13:47:59;;;;;;;4.78;3.60;;;;;23.30;102477.00;;;;10453890;28;20592;-79
2021/09/21 13:53:02;;;;;;;6.90;4.03;;;;;23.20;102487.00;;;;10437560;28;20205;-82
2021/09/21 13:58:04;;;;;;;9.25;4.47;;;;;23.10;102474.00;;;;10462223;28;20206;-79
2021/09/21 14:03:06;;;;;;;4.90;4.40;;;;;23.10;102462.00;;;;10447959;28;20679;-81
2021/09/21 14:08:09;;;;;;;6.07;3.88;;;;;23.00;102464.00;;;;10467180;28;20216;-80
2021/09/21 14:13:11;;;;;;;5.10;4.22;;;;;22.80;102460.00;;;;10489749;28;20209;-81
2021/09/21 14:18:13;;;;;;;3.97;3.53;;;;;22.40;102459.00;;;;10488366;28;20214;-81
2021/09/21 14:23:15;;;;;;;3.47;3.17;;;;;22.00;102455.00;;;;10463944;28;20201;-81
2021/09/21 14:28:19;;;;;;;7.22;4.13;;;;;21.90;102456.00;;;;10478567;28;20189;-81
2021/09/21 14:33:21;;;;;;;4.47;3.80;;;;;21.90;102457.00;;;;10438839;28;20227;-82
2021/09/21 14:38:23;;;;;;;6.22;4.03;;;;;21.70;102458.00;;;;10426856;28;20599;-81
2021/09/21 14:43:25;;;;;;;5.45;3.67;;;;;21.50;102458.00;;;;10459726;28;20209;-81
2021/09/21 14:48:27;;;;;;;4.35;3.00;;;;;21.30;102460.00;;;;10496386;28;20184;-81
2021/09/21 14:53:29;;;;;;;3.35;2.92;;;;;21.10;102456.00;;;;10471043;28;20190;-80
2021/09/21 14:58:32;;;;;;;5.50;3.00;;;;;21.20;102452.00;;;;10461178;28;20210;-79
2021/09/21 15:03:33;;;;;;;4.53;3.83;;;;;21.20;102454.00;;;;10443677;28;20194;-80
2021/09/21 15:08:37;;;;;;;4.78;3.13;;;;;21.10;102461.00;;;;10466186;28;20192;-79
2021/09/21 15:13:39;;;;;;;4.70;3.25;;;;;20.90;102464.00;;;;10466694;28;20207;-79
2021/09/21 15:18:43;;;;;;;5.47;3.38;;;;;20.80;102463.00;;;;10487085;28;20248;-79
2021/09/21 15:23:45;;;;;;;5.32;3.25;;;;;20.70;102453.00;;;;10483921;28;20189;-79
2021/09/21 15:28:48;;;;;;;5.65;3.60;;;;;20.70;102455.00;;;;10484503;28;20193;-79
2021/09/21 15:33:50;;;;;;;6.57;3.15;;;;;20.60;102460.00;;;;10471709;28;20197;-79
2021/09/21 15:38:52;;;;;;;5.32;3.38;;;;;20.40;102461.00;;;;10455464;28;20226;-79
2021/09/21 15:43:54;;;;;;;5.60;3.05;;;;;20.40;102462.00;;;;10482527;28;20197;-80
2021/09/21 15:48:56;;;;;;;3.17;2.83;;;;;20.30;102467.00;;;;10476357;28;20619;-79
2021/09/21 15:53:59;;;;;;;9.18;3.70;;;;;20.20;102478.00;;;;10459965;28;20201;-80
2021/09/21 15:59:02;;;;;;;6.70;3.30;;;;;20.00;102485.00;;;;10430906;28;20213;-80
2021/09/21 16:04:04;;;;;;;5.13;3.20;;;;;19.80;102483.00;;;;10442857;28;20194;-80
2021/09/21 16:09:10;;;;;;;7.30;3.42;;;;;19.60;102479.00;;;;10442687;28;20529;-80
2021/09/21 16:14:12;;;;;;;8.07;3.88;;;;;19.50;102479.00;;;;10445563;28;20197;-80
2021/09/21 16:19:14;;;;;;;5.28;3.42;;;;;19.20;102488.00;;;;10435832;28;20213;-80
2021/09/21 16:24:16;;;;;;;5.05;3.45;;;;;19.10;102477.00;;;;10447396;28;20194;-80
2021/09/21 16:29:20;;;;;;;3.40;2.63;;;;;18.90;102472.00;;;;10452662;28;20213;-79
2021/09/21 16:34:24;;;;;;;5.10;3.10;;;;;18.70;102493.00;;;;10458907;28;20228;-79
2021/09/21 16:39:28;;;;;;;6.85;3.40;;;;;18.50;102502.00;;;;10429409;28;20233;-79
2021/09/21 16:44:31;;;;;;;8.02;3.45;;;;;18.30;102492.00;;;;10452565;28;20216;-80
2021/09/21 16:49:34;;;;;;;4.82;2.97;;;;;18.00;102500.00;;;;10431996;28;20197;-80
2021/09/21 16:54:37;;;;;;;4.13;3.03;;;;;17.70;102485.00;;;;10434899;28;20240;-79
2021/09/21 16:59:39;;;;;;;5.57;3.67;;;;;17.40;102474.00;;;;10447894;28;20926;-79
2021/09/21 17:04:43;;;;;;;6.38;3.30;;;;;17.20;102474.00;;;;10441408;28;20197;-79
2021/09/21 17:09:49;;;;;;;6.07;3.55;;;;;16.90;102481.00;;;;10439640;28;20191;-79
2021/09/21 17:14:53;;;;;;;5.57;3.38;;;;;16.70;102494.00;;;;10452174;28;20218;-79
2021/09/21 17:19:55;;;;;;;7.28;4.05;;;;;16.40;102489.00;;;;10443001;28;20213;-80
2021/09/21 17:24:57;;;;;;;7.40;4.70;;;;;16.30;102491.00;;;;10447902;28;20247;-79
2021/09/21 17:30:06;;;;;;;4.65;4.03;;;;;16.00;102508.00;;;;10452514;28;20201;-79
2021/09/21 17:35:09;;;;;;;4.90;4.32;;;;;15.80;102502.00;;;;10443025;28;20688;-79
2021/09/21 17:40:13;;;;;;;7.50;4.13;;;;;15.50;102505.00;;;;10432807;28;20224;-79
2021/09/21 17:45:18;;;;;;;5.32;4.13;;;;;15.30;102516.00;;;;10445192;28;20986;-79
2021/09/21 17:50:23;;;;;;;7.53;3.85;;;;;15.10;102509.00;;;;10445748;28;20199;-79
2021/09/21 17:55:27;;;;;;;4.30;3.43;;;;;14.80;102517.00;;;;10441253;28;20194;-79
2021/09/21 18:00:30;;;;;;;5.43;4.53;;;;;14.70;102516.00;;;;10436744;28;20198;-79
2021/09/21 18:05:35;;;;;;;10.27;4.70;;;;;14.50;102524.00;;;;10441671;28;20194;-80
2021/09/21 18:10:39;;;;;;;7.53;4.83;;;;;14.40;102529.00;;;;10424606;28;20194;-79
2021/09/21 18:15:43;;;;;;;10.27;5.73;;;;;14.20;102513.00;;;;10442053;28;20201;-79
2021/09/21 18:21:22;;;;;;;5.60;5.03;;;;;14.00;102518.00;;;;10448657;28;20248;-79
2021/09/21 18:26:24;;;;;;;6.30;5.13;;;;;13.80;102521.00;;;;10435219;28;20205;-78
2021/09/21 18:31:26;;;;;;;6.23;5.03;;;;;13.70;102524.00;;;;10443047;28;20649;-79
2021/09/21 18:36:28;;;;;;;5.60;4.80;;;;;13.60;102533.00;;;;10452922;28;20248;-78
2021/09/21 18:41:30;;;;;;;6.37;4.33;;;;;13.50;102531.00;;;;10467346;28;20214;-79
2021/09/21 18:46:32;;;;;;;6.33;4.97;;;;;13.50;102538.00;;;;10443142;28;20232;-79
2021/09/21 18:51:34;;;;;;;10.10;5.53;;;;;13.40;102536.00;;;;10453722;28;20193;-79
2021/09/21 18:56:36;;;;;;;9.80;4.90;;;;;13.30;102540.00;;;;10409903;28;20294;-79
2021/09/21 19:01:38;;;;;;;5.10;4.57;;;;;13.10;102549.00;;;;10408599;28;20225;-78
2021/09/21 19:06:47;;;;;;;10.40;5.50;;;;;13.00;102549.00;;;;10369967;28;20212;-79
2021/09/21 19:11:49;;;;;;;6.83;5.50;;;;;12.90;102554.00;;;;10378323;28;20230;-79
2021/09/21 19:17:01;;;;;;;6.43;5.40;;;;;12.90;102563.00;;;;10397858;28;20265;-79
2021/09/21 19:22:06;;;;;;;7.30;4.73;;;;;12.80;102572.00;;;;10401615;28;20207;-79
2021/09/21 19:27:09;;;;;;;9.03;5.57;;;;;12.80;102573.00;;;;10389282;28;20676;-79
2021/09/21 19:32:11;;;;;;;10.53;6.57;;;;;12.70;102571.00;;;;10368594;28;20215;-79
2021/09/21 19:37:15;;;;;;;8.40;6.87;;;;;12.70;102574.00;;;;10305490;28;20223;-79
2021/09/21 19:42:18;;;;;;;9.90;6.77;;;;;12.60;102588.00;;;;10337254;28;20212;-79
2021/09/21 19:47:21;;;;;;;9.67;7.83;;;;;12.50;102582.00;;;;10287494;28;20197;-79
2021/09/21 19:52:23;;;;;;;16.03;7.57;;;;;12.40;102584.00;;;;10311687;28;20199;-79
2021/09/21 19:57:25;;;;;;;10.93;7.50;;;;;12.30;102584.00;;;;10379242;28;20431;-80
2021/09/21 20:02:28;;;;;;;10.73;7.47;;;;;12.20;102574.00;;;;10365601;28;20205;-79
2021/09/21 20:07:31;;;;;;;9.00;7.73;;;;;12.10;102581.00;;;;10392082;28;20207;-79
2021/09/21 20:12:34;;;;;;;14.00;7.67;;;;;12.00;102593.00;;;;10401914;28;20195;-79
2021/09/21 20:17:38;;;;;;;12.77;9.40;;;;;11.90;102578.00;;;;10362464;28;20310;-78
2021/09/21 20:22:42;;;;;;;12.07;8.77;;;;;11.90;102572.00;;;;10380936;28;20206;-80
2021/09/21 20:27:51;;;;;;;11.33;8.07;;;;;11.80;102570.00;;;;10423272;28;20268;-79
2021/09/21 20:32:56;;;;;;;8.90;6.53;;;;;11.70;102581.00;;;;10469113;28;20194;-78
2021/09/21 20:38:10;;;;;;;10.27;7.40;;;;;11.70;102578.00;;;;10436847;28;20205;-79
2021/09/21 20:43:16;;;;;;;8.73;6.93;;;;;11.70;102591.00;;;;10459234;28;20193;-79
2021/09/21 20:48:19;;;;;;;10.87;7.63;;;;;11.60;102594.00;;;;10481063;28;20612;-79
2021/09/21 20:53:23;;;;;;;11.07;6.97;;;;;11.40;102593.00;;;;10434610;28;20541;-79
2021/09/21 20:58:27;;;;;;;8.03;6.50;;;;;11.40;102581.00;;;;10463929;28;20665;-79
2021/09/21 21:03:31;;;;;;;9.80;7.67;;;;;11.40;102583.00;;;;10438452;28;20281;-79
2021/09/21 21:08:35;;;;;;;9.60;7.77;;;;;11.30;102578.00;;;;10476428;28;20204;-79
2021/09/21 21:13:38;;;;;;;13.27;8.53;;;;;11.20;102583.00;;;;10444541;28;20682;-79
2021/09/21 21:18:43;;;;;;;10.80;8.60;;;;;11.10;102575.00;;;;10462026;28;20223;-79
2021/09/21 21:23:48;;;;;;;11.23;8.20;;;;;11.10;102575.00;;;;10448639;28;20206;-79
2021/09/21 21:28:52;;;;;;;9.80;7.87;;;;;11.00;102577.00;;;;10457090;28;20660;-80
2021/09/21 21:33:55;;;;;;;11.17;7.67;;;;;11.00;102581.00;;;;10458591;28;20199;-80
2021/09/21 21:38:59;;;;;;;11.93;7.93;;;;;11.00;102583.00;;;;10452868;28;20221;-80
2021/09/21 21:44:03;;;;;;;12.23;8.27;;;;;10.90;102580.00;;;;10426524;28;20213;-80
2021/09/21 21:49:07;;;;;;;18.83;8.30;;;;;10.80;102579.00;;;;10468544;28;20544;-80
2021/09/21 21:54:12;;;;;;;10.43;8.20;;;;;10.70;102582.00;;;;10431112;28;20213;-81
2021/09/21 21:59:15;;;;;;;10.77;8.00;;;;;10.60;102576.00;;;;10465397;28;20198;-80
2021/09/21 22:04:19;;;;;;;9.37;7.10;;;;;10.50;102564.00;;;;10424097;28;20265;-80
2021/09/21 22:09:22;;;;;;;10.93;8.20;;;;;10.50;102565.00;;;;10440953;28;20197;-80
2021/09/21 22:14:26;;;;;;;9.93;7.13;;;;;10.40;102551.00;;;;10487996;28;20608;-80
2021/09/21 22:19:29;;;;;;;9.23;7.80;;;;;10.40;102550.00;;;;10472993;28;20217;-80
2021/09/21 22:24:33;;;;;;;15.67;9.20;;;;;10.30;102542.00;;;;10471332;28;20198;-80
2021/09/21 22:29:36;;;;;;;15.77;9.33;;;;;10.30;102536.00;;;;10439311;28;20196;-80
2021/09/21 22:34:39;;;;;;;12.60;8.40;;;;;10.20;102537.00;;;;10464324;28;20565;-81
2021/09/21 22:39:43;;;;;;;11.87;8.17;;;;;10.20;102540.00;;;;10442235;28;20755;-81
2021/09/21 22:44:47;;;;;;;12.37;9.13;;;;;10.20;102540.00;;;;10486473;28;20200;-80
2021/09/21 22:49:50;;;;;;;10.27;8.57;;;;;10.10;102541.00;;;;10493875;28;20196;-81
2021/09/21 22:54:53;;;;;;;11.43;8.47;;;;;10.10;102529.00;;;;10433427;28;20600;-80
2021/09/21 22:59:54;;;;;;;13.40;9.17;;;;;10.10;102536.00;;;;10435324;28;20210;-81
2021/09/21 23:04:56;;;;;;;12.80;9.60;;;;;10.10;102531.00;;;;10466740;28;20204;-81
2021/09/21 23:09:58;;;;;;;13.33;9.03;;;;;10.10;102527.00;;;;10431189;28;20206;-80
2021/09/21 23:15:06;;;;;;;12.50;8.70;;;;;10.00;102524.00;;;;10468470;28;20526;-81
2021/09/21 23:20:09;;;;;;;11.73;8.97;;;;;10.00;102518.00;;;;10428630;28;20229;-80
2021/09/21 23:25:12;;;;;;;10.83;9.63;;;;;9.90;102526.00;;;;10437195;28;20240;-80
2021/09/21 23:30:14;;;;;;;11.87;9.53;;;;;9.90;102522.00;;;;10422533;28;20583;-80
2021/09/21 23:35:16;;;;;;;12.27;8.73;;;;;9.90;102518.00;;;;10437275;28;20191;-80
2021/09/21 23:40:18;;;;;;;11.73;9.23;;;;;9.80;102509.00;;;;10428918;28;20692;-80
2021/09/21 23:45:20;;;;;;;13.70;9.20;;;;;9.80;102500.00;;;;10461101;28;20592;-81
2021/09/21 23:50:22;;;;;;;12.63;9.43;;;;;9.70;102500.00;;;;10480025;28;20656;-80
2021/09/21 23:55:24;;;;;;;13.40;9.77;;;;;9.70;102494.00;;;;10456016;28;20534;-80
